LJPZ/POW METAR and TAF weather

Enter ICAO airport designator
Station Type Date Time Source
LJPZ METAR 2022/06/26 08:30 UTC NOAA

LJPZ 260830Z 12004KT 070V160 CAVOK 29/17 Q1015


Station Type Date Time Source
LJPZ Decoded METAR 2022/06/26 08:30 UTC NOAA

Portoroz, Slovenia (LJPZ) 45-31N 013-34E
Jun 26, 2022 - 04:30 AM EDT / 2022.06.26 0830 UTC
Wind: from the ESE (120 degrees) at 5 MPH (4 KT) (direction variable):0
Visibility: greater than 7 mile(s):0
Temperature: 84 F (29 C)
Dew Point: 62 F (17 C)
Relative Humidity: 48%
Pressure (altimeter): 29.97 in. Hg (1015 hPa)
ob: LJPZ 260830Z 12004KT 070V160 CAVOK 29/17 Q1015
cycle: 8

Station Type Date Time Source
LJPZ TAF 2020/09/27 12:21 UTC NOAA

TAF TAF LJPZ 271100Z 2712/2821 30003KT 9999 FEW050 PROB30
TEMPO 2712/2718 -SHRA SCT040TCU BKN070
BECMG 2718/2720 06012G25KT RA

Example: see airport list